createdAt,value
2019-04-26T00:00:56.283Z,101012.80
2019-04-26T00:03:33.446Z,101017.52
2019-04-26T00:06:01.565Z,101012.11
2019-04-26T00:08:29.318Z,101019.05
2019-04-26T00:11:16.095Z,101013.65
2019-04-26T00:14:12.610Z,101017.05
2019-04-26T00:17:04.664Z,101021.45
2019-04-26T00:19:32.786Z,101028.36
2019-04-26T00:22:00.926Z,101031.16
2019-04-26T00:24:29.195Z,101036.68
2019-04-26T00:26:57.133Z,101038.14
2019-04-26T00:29:24.861Z,101033.84
2019-04-26T00:31:53.344Z,101022.46
2019-04-26T00:34:21.709Z,101034.48
2019-04-26T00:36:49.669Z,101028.23
2019-04-26T00:39:18.215Z,101027.05
2019-04-26T00:41:46.617Z,101036.41
2019-04-26T00:44:14.876Z,101038.30
2019-04-26T00:46:47.111Z,101041.25
2019-04-26T00:49:17.081Z,101049.06
2019-04-26T00:51:45.493Z,101051.60
2019-04-26T00:54:15.551Z,101056.23
2019-04-26T00:56:43.590Z,101066.80
2019-04-26T00:59:15.155Z,101074.50
2019-04-26T01:01:48.217Z,101073.97
2019-04-26T01:04:17.082Z,101071.89
2019-04-26T01:06:46.875Z,101078.06
2019-04-26T01:09:15.936Z,101075.73
2019-04-26T01:11:43.790Z,101075.80
2019-04-26T01:14:11.688Z,101065.54
2019-04-26T01:16:39.599Z,101062.94
2019-04-26T01:19:10.601Z,101065.78
2019-04-26T01:21:45.156Z,101071.58
2019-04-26T01:24:14.374Z,101075.66
2019-04-26T01:26:43.202Z,101083.12
2019-04-26T01:29:13.757Z,101090.55
2019-04-26T01:32:07.310Z,101099.48
2019-04-26T01:34:35.922Z,101110.58
2019-04-26T01:37:03.998Z,101113.51
2019-04-26T01:39:33.020Z,101109.73
2019-04-26T01:42:09.584Z,101104.50
2019-04-26T01:45:10.780Z,101102.63
2019-04-26T01:47:39.287Z,101094.30
2019-04-26T01:50:07.669Z,101097.72
2019-04-26T01:52:35.724Z,101100.78
2019-04-26T01:55:05.038Z,101103.88
2019-04-26T01:57:33.320Z,101088.59
2019-04-26T02:00:14.583Z,101084.52
2019-04-26T02:02:49.713Z,101093.23
2019-04-26T02:05:22.672Z,101092.86
2019-04-26T02:07:52.880Z,101099.24
2019-04-26T02:10:24.123Z,101095.23
2019-04-26T02:12:54.266Z,101088.37
2019-04-26T02:15:27.081Z,101089.68
2019-04-26T02:17:57.003Z,101095.31
2019-04-26T02:21:22.053Z,101107.02
2019-04-26T02:24:04.881Z,101115.13
2019-04-26T02:26:34.938Z,101104.31
2019-04-26T02:29:07.908Z,101098.09
2019-04-26T02:31:37.725Z,101094.59
2019-04-26T02:34:06.479Z,101089.59
2019-04-26T02:36:53.047Z,101093.13
2019-04-26T02:39:19.298Z,101096.70
2019-04-26T02:41:50.031Z,101096.06
2019-04-26T02:44:22.099Z,101096.34
2019-04-26T02:47:26.682Z,101095.80
2019-04-26T02:50:03.016Z,101093.93
2019-04-26T02:52:46.639Z,101085.98
2019-04-26T02:55:46.855Z,101093.75
2019-04-26T02:58:15.951Z,101087.37
2019-04-26T03:00:45.207Z,101089.58
2019-04-26T03:03:13.955Z,101099.17
2019-04-26T03:05:43.458Z,101097.42
2019-04-26T03:08:17.484Z,101091.72
2019-04-26T03:11:11.869Z,101095.17
2019-04-26T03:14:01.721Z,101105.39
2019-04-26T03:16:45.123Z,101113.77
2019-04-26T03:19:56.929Z,101112.84
2019-04-26T03:23:20.012Z,101118.80
2019-04-26T03:26:26.183Z,101122.48
2019-04-26T03:29:15.328Z,101116.86
2019-04-26T03:32:22.341Z,101112.69
2019-04-26T03:35:21.168Z,101124.27
2019-04-26T03:38:16.289Z,101136.42
2019-04-26T03:41:02.896Z,101133.16
2019-04-26T03:44:04.273Z,101136.42
2019-04-26T03:46:55.881Z,101141.70
2019-04-26T03:50:10.607Z,101149.03
2019-04-26T03:53:38.274Z,101156.58
2019-04-26T03:56:56.514Z,101161.77
2019-04-26T03:59:40.723Z,101160.27
2019-04-26T04:02:39.264Z,101143.42
2019-04-26T04:05:31.579Z,101153.88
2019-04-26T04:08:02.664Z,101162.45
2019-04-26T04:10:49.216Z,101153.56
2019-04-26T04:13:53.305Z,101154.33
2019-04-26T04:17:17.915Z,101157.77
2019-04-26T04:21:01.360Z,101168.89
2019-04-26T04:24:04.971Z,101163.34
2019-04-26T04:27:01.278Z,101163.66
2019-04-26T04:29:54.989Z,101156.69
2019-04-26T04:32:49.650Z,101165.30
2019-04-26T04:35:20.858Z,101161.45
2019-04-26T04:38:08.360Z,101156.33
2019-04-26T04:41:15.626Z,101156.87
2019-04-26T04:44:02.154Z,101159.84
2019-04-26T04:47:25.797Z,101153.59
2019-04-26T04:50:18.638Z,101151.93
2019-04-26T04:53:25.030Z,101155.84
2019-04-26T04:56:37.614Z,101170.69
2019-04-26T04:59:10.482Z,101179.63
2019-04-26T05:02:21.191Z,101182.90
2019-04-26T05:05:45.255Z,101179.84
2019-04-26T05:08:37.898Z,101179.95
2019-04-26T05:11:16.436Z,101201.50
2019-04-26T05:14:10.268Z,101211.09
2019-04-26T05:17:30.248Z,101222.61
2019-04-26T05:20:37.809Z,101226.64
2019-04-26T05:24:05.261Z,101220.97
2019-04-26T05:27:39.911Z,101208.10
2019-04-26T05:31:01.814Z,101213.41
2019-04-26T05:34:03.700Z,101204.38
2019-04-26T05:37:17.384Z,101206.28
2019-04-26T05:40:17.819Z,101193.52
2019-04-26T05:43:32.341Z,101204.57
2019-04-26T05:46:51.689Z,101204.08
2019-04-26T05:50:33.763Z,101202.33
2019-04-26T05:54:04.328Z,101191.12
2019-04-26T05:57:04.450Z,101192.64
2019-04-26T06:00:01.116Z,101205.06
2019-04-26T06:03:01.243Z,101225.95
2019-04-26T06:06:27.915Z,101241.35
2019-04-26T06:09:56.505Z,101243.42
2019-04-26T06:13:09.569Z,101251.27
2019-04-26T06:16:00.085Z,101249.73
2019-04-26T06:18:59.593Z,101243.89
2019-04-26T06:21:47.073Z,101238.92
2019-04-26T06:25:28.738Z,101247.94
2019-04-26T06:28:07.254Z,101263.98
2019-04-26T06:31:13.788Z,101276.17
2019-04-26T06:34:06.126Z,101298.50
2019-04-26T06:36:51.616Z,101298.16
2019-04-26T06:39:40.936Z,101303.82
2019-04-26T06:43:00.633Z,101311.73
2019-04-26T06:46:32.190Z,101306.59
2019-04-26T06:50:03.405Z,101313.27
2019-04-26T06:52:38.982Z,101324.91
2019-04-26T06:55:35.177Z,101329.95
2019-04-26T06:58:45.662Z,101332.94
2019-04-26T07:01:43.006Z,101344.12
2019-04-26T07:05:05.398Z,101345.81
2019-04-26T07:08:03.078Z,101350.89
2019-04-26T07:11:09.635Z,101346.69
2019-04-26T07:14:07.241Z,101336.66
2019-04-26T07:16:49.215Z,101328.47
2019-04-26T07:20:12.165Z,101314.96
2019-04-26T07:23:34.694Z,101306.12
2019-04-26T07:27:22.080Z,101303.00
2019-04-26T07:30:53.090Z,101296.86
2019-04-26T07:34:07.292Z,101303.09
2019-04-26T07:37:35.875Z,101320.52
2019-04-26T07:41:15.061Z,101324.58
2019-04-26T07:44:28.829Z,101332.86
2019-04-26T07:48:16.914Z,101321.20
2019-04-26T07:51:56.203Z,101318.02
2019-04-26T07:55:22.731Z,101299.84
2019-04-26T08:02:21.926Z,101310.46
2019-04-26T08:05:05.796Z,101321.66
2019-04-26T08:07:40.390Z,101340.84
2019-04-26T08:10:15.076Z,101354.44
2019-04-26T08:12:51.008Z,101371.98
2019-04-26T08:15:55.397Z,101380.50
2019-04-26T08:18:36.911Z,101393.34
2019-04-26T08:21:18.385Z,101407.29
2019-04-26T08:24:02.067Z,101406.55
2019-04-26T08:26:33.554Z,101405.20
2019-04-26T08:29:06.645Z,101408.02
2019-04-26T08:31:38.349Z,101399.59
2019-04-26T08:34:12.354Z,101391.77
2019-04-26T08:36:52.020Z,101392.52
2019-04-26T08:39:32.505Z,101387.35
2019-04-26T08:41:57.947Z,101384.48
2019-04-26T08:45:04.322Z,101382.10
2019-04-26T08:47:53.506Z,101381.30
2019-04-26T08:50:27.249Z,101374.05
2019-04-26T08:52:59.102Z,101367.95
2019-04-26T08:55:29.243Z,101364.89
2019-04-26T08:58:05.096Z,101360.28
2019-04-26T09:00:47.893Z,101362.13
2019-04-26T09:03:27.720Z,101355.84
2019-04-26T09:06:13.095Z,101356.75
2019-04-26T09:08:44.827Z,101365.10
2019-04-26T09:11:25.423Z,101354.40
2019-04-26T09:13:49.887Z,101358.13
2019-04-26T09:16:20.216Z,101364.77
2019-04-26T09:18:54.172Z,101356.06
2019-04-26T09:21:28.937Z,101370.11
2019-04-26T09:24:26.580Z,101375.59
2019-04-26T09:27:08.947Z,101377.04
2019-04-26T09:29:56.252Z,101374.81
2019-04-26T09:32:29.346Z,101365.23
2019-04-26T09:34:57.227Z,101361.73
2019-04-26T09:37:25.081Z,101369.70
2019-04-26T09:39:53.030Z,101376.58
2019-04-26T09:42:39.298Z,101371.39
2019-04-26T09:45:22.362Z,101365.48
2019-04-26T09:47:54.137Z,101368.50
2019-04-26T09:50:36.967Z,101366.33
2019-04-26T09:53:05.093Z,101373.80
2019-04-26T09:55:35.534Z,101375.75
2019-04-26T09:58:02.600Z,101376.09
2019-04-26T10:00:31.123Z,101376.84
2019-04-26T10:02:59.059Z,101372.02
2019-04-26T10:05:26.875Z,101363.30
2019-04-26T10:07:54.676Z,101362.52
2019-04-26T10:10:31.055Z,101363.02
2019-04-26T10:13:06.128Z,101355.00
2019-04-26T10:15:50.242Z,101363.92
2019-04-26T10:18:20.415Z,101360.97
2019-04-26T10:20:48.235Z,101358.84
2019-04-26T10:23:17.158Z,101360.95
2019-04-26T10:25:47.319Z,101369.05
2019-04-26T10:28:17.090Z,101372.42
2019-04-26T10:30:45.091Z,101365.78
2019-04-26T10:33:14.164Z,101365.39
2019-04-26T10:35:43.016Z,101375.89
2019-04-26T10:38:10.733Z,101375.39
2019-04-26T10:40:38.722Z,101370.36
2019-04-26T10:43:07.527Z,101372.29
2019-04-26T10:45:35.600Z,101365.95
2019-04-26T10:48:04.153Z,101367.91
2019-04-26T10:50:33.086Z,101366.59
2019-04-26T10:53:20.673Z,101368.72
2019-04-26T10:56:01.831Z,101376.33
2019-04-26T10:58:36.565Z,101372.20
2019-04-26T11:01:09.954Z,101379.20
2019-04-26T11:03:39.723Z,101369.22
2019-04-26T11:06:09.160Z,101368.50
2019-04-26T11:08:36.887Z,101371.24
2019-04-26T11:11:08.390Z,101370.94
2019-04-26T11:13:36.555Z,101368.25
2019-04-26T11:16:07.134Z,101368.55
2019-04-26T11:18:35.107Z,101358.50
2019-04-26T11:21:04.013Z,101359.80
2019-04-26T11:23:31.751Z,101371.37
2019-04-26T11:26:01.744Z,101366.11
2019-04-26T11:28:29.440Z,101362.58
2019-04-26T11:30:57.582Z,101368.70
2019-04-26T11:33:27.423Z,101364.92
2019-04-26T11:35:55.332Z,101373.52
2019-04-26T11:38:26.980Z,101365.36
2019-04-26T11:41:05.361Z,101370.55
2019-04-26T11:43:22.462Z,101369.45
2019-04-26T11:45:50.564Z,101366.76
2019-04-26T11:48:18.601Z,101380.69
2019-04-26T11:50:48.176Z,101375.87
2019-04-26T11:53:16.323Z,101365.95
2019-04-26T11:55:52.410Z,101376.22
2019-04-26T11:58:22.672Z,101378.98
2019-04-26T12:00:55.576Z,101380.42
2019-04-26T12:03:24.893Z,101375.82
2019-04-26T12:06:17.125Z,101385.34
2019-04-26T12:08:47.602Z,101382.18
2019-04-26T12:11:18.973Z,101385.09
2019-04-26T12:13:45.238Z,101377.61
2019-04-26T12:16:14.633Z,101387.01
2019-04-26T12:18:44.141Z,101391.16
2019-04-26T12:21:12.539Z,101380.47
2019-04-26T12:23:40.334Z,101388.30
2019-04-26T12:26:08.209Z,101385.63
2019-04-26T12:28:36.343Z,101383.22
2019-04-26T12:31:05.730Z,101387.39
2019-04-26T12:33:33.523Z,101388.84
2019-04-26T12:36:01.286Z,101385.05
2019-04-26T12:38:31.032Z,101393.66
2019-04-26T12:40:59.008Z,101392.06
2019-04-26T12:43:26.940Z,101397.48
2019-04-26T12:46:06.696Z,101395.05
2019-04-26T12:48:34.373Z,101397.57
2019-04-26T12:51:02.361Z,101388.36
2019-04-26T12:53:31.269Z,101390.86
2019-04-26T12:56:00.170Z,101387.01
2019-04-26T12:58:29.937Z,101393.26
2019-04-26T13:00:59.791Z,101398.20
2019-04-26T13:03:30.414Z,101391.16
2019-04-26T13:05:59.111Z,101409.58
2019-04-26T13:08:27.092Z,101407.84
2019-04-26T13:11:07.913Z,101402.77
2019-04-26T13:14:16.093Z,101403.70
2019-04-26T13:16:57.228Z,101410.67
2019-04-26T13:19:25.111Z,101408.65
2019-04-26T13:21:53.057Z,101409.73
2019-04-26T13:24:20.968Z,101408.89
2019-04-26T13:26:50.175Z,101416.17
2019-04-26T13:29:19.445Z,101414.27
2019-04-26T13:31:47.344Z,101412.76
2019-04-26T13:34:15.173Z,101412.20
2019-04-26T13:36:42.889Z,101412.08
2019-04-26T13:39:13.378Z,101418.08
2019-04-26T13:41:42.177Z,101412.42
2019-04-26T13:44:10.311Z,101424.30
2019-04-26T13:46:57.760Z,101414.72
2019-04-26T13:49:33.523Z,101418.75
2019-04-26T13:52:01.544Z,101409.23
2019-04-26T13:54:29.278Z,101414.81
2019-04-26T13:56:57.246Z,101409.42
2019-04-26T13:59:28.173Z,101414.15
2019-04-26T14:01:54.718Z,101413.17
2019-04-26T14:04:22.501Z,101413.98
2019-04-26T14:06:50.430Z,101407.92
2019-04-26T14:09:18.328Z,101411.39
2019-04-26T14:11:46.058Z,101418.09
2019-04-26T14:14:14.042Z,101407.20
2019-04-26T14:16:42.457Z,101415.70
2019-04-26T14:19:14.912Z,101417.17
2019-04-26T14:21:39.865Z,101420.73
2019-04-26T14:24:25.214Z,101413.48
2019-04-26T14:26:56.163Z,101411.03
2019-04-26T14:29:24.248Z,101410.76
2019-04-26T14:31:53.156Z,101408.66
2019-04-26T14:34:21.084Z,101396.02
2019-04-26T14:36:49.742Z,101390.09
2019-04-26T14:39:20.973Z,101390.96
2019-04-26T14:41:47.766Z,101401.07
2019-04-26T14:44:16.201Z,101391.00
2019-04-26T14:46:49.068Z,101398.98
2019-04-26T14:49:13.867Z,101394.36
2019-04-26T14:51:41.595Z,101393.25
2019-04-26T14:54:11.532Z,101389.30
2019-04-26T14:56:51.641Z,101389.85
2019-04-26T14:59:10.278Z,101394.14
2019-04-26T15:02:06.388Z,101392.72
2019-04-26T15:04:47.849Z,101394.87
2019-04-26T15:07:17.781Z,101383.80
2019-04-26T15:09:45.538Z,101388.52
2019-04-26T15:12:15.769Z,101384.86
2019-04-26T15:14:43.340Z,101386.61
2019-04-26T15:17:12.468Z,101387.46
2019-04-26T15:19:45.904Z,101384.44
2019-04-26T15:22:12.083Z,101389.94
2019-04-26T15:24:40.029Z,101398.01
2019-04-26T15:27:07.739Z,101387.23
2019-04-26T15:29:35.788Z,101382.23
2019-04-26T15:32:05.299Z,101385.75
2019-04-26T15:34:33.381Z,101383.24
2019-04-26T15:37:02.988Z,101388.00
2019-04-26T15:39:38.491Z,101379.02
2019-04-26T15:42:17.724Z,101380.48
2019-04-26T15:44:50.937Z,101386.13
2019-04-26T15:47:44.118Z,101379.77
2019-04-26T15:50:50.518Z,101385.09
2019-04-26T15:53:14.557Z,101385.91
2019-04-26T15:55:43.580Z,101382.33
2019-04-26T15:58:11.641Z,101382.92
2019-04-26T16:00:39.582Z,101381.14
2019-04-26T16:03:07.671Z,101382.73
2019-04-26T16:05:38.502Z,101384.67
2019-04-26T16:08:06.458Z,101381.64
2019-04-26T16:10:38.238Z,101383.28
2019-04-26T16:13:18.207Z,101381.58
2019-04-26T16:15:33.959Z,101389.17
2019-04-26T16:18:04.241Z,101385.80
2019-04-26T16:20:37.597Z,101383.45
2019-04-26T16:23:06.295Z,101381.98
2019-04-26T16:25:34.450Z,101379.39
2019-04-26T16:28:22.850Z,101373.35
2019-04-26T16:31:16.176Z,101377.94
2019-04-26T16:33:44.868Z,101383.58
2019-04-26T16:36:12.734Z,101389.67
2019-04-26T16:38:41.774Z,101387.48
2019-04-26T16:41:13.783Z,101389.92
2019-04-26T16:43:50.936Z,101391.20
2019-04-26T16:46:12.649Z,101392.94
2019-04-26T16:48:44.199Z,101390.88
2019-04-26T16:51:10.695Z,101389.68
2019-04-26T16:54:02.138Z,101400.19
2019-04-26T16:56:08.366Z,101398.73
2019-04-26T16:58:38.299Z,101400.40
2019-04-26T17:01:10.031Z,101396.14
2019-04-26T17:03:56.939Z,101398.90
2019-04-26T17:06:24.685Z,101405.36
2019-04-26T17:09:00.879Z,101400.84
2019-04-26T17:11:22.950Z,101405.27
2019-04-26T17:13:56.446Z,101400.40
2019-04-26T17:16:22.464Z,101403.92
2019-04-26T17:18:50.446Z,101406.95
2019-04-26T17:21:23.856Z,101403.48
2019-04-26T17:24:07.370Z,101402.77
2019-04-26T17:26:36.314Z,101398.63
2019-04-26T17:29:03.137Z,101392.64
2019-04-26T17:31:31.658Z,101395.41
2019-04-26T17:33:59.566Z,101399.52
2019-04-26T17:36:27.459Z,101397.84
2019-04-26T17:38:55.190Z,101391.66
2019-04-26T17:41:23.083Z,101396.23
2019-04-26T17:43:56.060Z,101393.84
2019-04-26T17:46:21.628Z,101398.08
2019-04-26T17:48:50.862Z,101407.48
2019-04-26T17:51:22.411Z,101407.70
2019-04-26T17:53:49.506Z,101396.02
2019-04-26T17:56:18.451Z,101403.89
2019-04-26T17:58:53.109Z,101406.73
2019-04-26T18:01:41.171Z,101408.20
2019-04-26T18:03:51.294Z,101412.56
2019-04-26T18:06:15.633Z,101410.24
2019-04-26T18:08:51.901Z,101410.86
2019-04-26T18:11:19.530Z,101405.29
2019-04-26T18:13:43.225Z,101404.95
2019-04-26T18:16:17.799Z,101417.48
2019-04-26T18:19:05.355Z,101421.11
2019-04-26T18:22:04.813Z,101423.07
2019-04-26T18:24:35.013Z,101424.72
2019-04-26T18:27:08.828Z,101426.59
2019-04-26T18:29:36.525Z,101428.55
2019-04-26T18:32:05.805Z,101423.53
2019-04-26T18:34:37.168Z,101422.64
2019-04-26T18:37:07.125Z,101421.97
2019-04-26T18:39:34.039Z,101424.81
2019-04-26T18:42:02.968Z,101419.86
2019-04-26T18:44:36.938Z,101428.30
2019-04-26T18:47:14.698Z,101433.58
2019-04-26T18:49:43.453Z,101428.92
2019-04-26T18:52:11.147Z,101440.61
2019-04-26T18:54:47.864Z,101433.89
2019-04-26T18:57:17.091Z,101442.30
2019-04-26T18:59:50.853Z,101439.46
2019-04-26T19:02:18.751Z,101442.27
2019-04-26T19:04:48.117Z,101445.62
2019-04-26T19:07:31.009Z,101441.23
2019-04-26T19:09:58.735Z,101456.44
2019-04-26T19:12:23.364Z,101454.42
2019-04-26T19:15:21.827Z,101451.84
2019-04-26T19:18:05.306Z,101451.25
2019-04-26T19:21:03.060Z,101455.39
2019-04-26T19:23:32.091Z,101461.52
2019-04-26T19:26:01.794Z,101465.10
2019-04-26T19:28:31.221Z,101469.18
2019-04-26T19:30:58.962Z,101464.37
2019-04-26T19:33:26.876Z,101465.05
2019-04-26T19:35:54.786Z,101476.19
2019-04-26T19:38:23.786Z,101468.64
2019-04-26T19:40:52.071Z,101470.25
2019-04-26T19:43:30.732Z,101471.47
2019-04-26T19:45:57.866Z,101470.25
2019-04-26T19:48:33.302Z,101478.34
2019-04-26T19:51:09.402Z,101476.16
2019-04-26T19:53:51.758Z,101474.16
2019-04-26T19:56:31.460Z,101475.48
2019-04-26T19:58:59.618Z,101480.39
2019-04-26T20:01:27.539Z,101488.86
2019-04-26T20:03:55.523Z,101495.81
2019-04-26T20:06:26.791Z,101484.63
2019-04-26T20:08:55.493Z,101483.84
2019-04-26T20:11:23.234Z,101486.14
2019-04-26T20:13:55.160Z,101488.86
2019-04-26T20:16:22.316Z,101490.56
2019-04-26T20:18:53.188Z,101486.39
2019-04-26T20:21:21.862Z,101489.73
2019-04-26T20:23:52.672Z,101477.84
2019-04-26T20:26:22.448Z,101485.92
2019-04-26T20:28:51.362Z,101484.32
2019-04-26T20:31:27.422Z,101490.97
2019-04-26T20:33:59.213Z,101491.90
2019-04-26T20:36:27.229Z,101491.14
2019-04-26T20:38:55.485Z,101488.22
2019-04-26T20:41:23.583Z,101490.02
2019-04-26T20:44:04.434Z,101486.14
2019-04-26T20:46:24.350Z,101492.83
2019-04-26T20:48:52.447Z,101491.77
2019-04-26T20:51:22.372Z,101482.83
2019-04-26T20:53:49.928Z,101481.13
2019-04-26T20:56:19.454Z,101481.51
2019-04-26T20:58:47.377Z,101478.05
2019-04-26T21:01:16.322Z,101480.92
2019-04-26T21:03:45.890Z,101470.39
2019-04-26T21:06:13.864Z,101459.66
2019-04-26T21:08:42.393Z,101469.81
2019-04-26T21:11:11.206Z,101462.24
2019-04-26T21:13:41.525Z,101459.06
2019-04-26T21:16:11.230Z,101458.87
2019-04-26T21:18:40.206Z,101458.00
2019-04-26T21:21:10.563Z,101451.41
2019-04-26T21:23:40.146Z,101442.63
2019-04-26T21:26:32.203Z,101449.84
2019-04-26T21:29:20.503Z,101438.91
2019-04-26T21:31:55.427Z,101439.80
2019-04-26T21:34:26.583Z,101432.27
2019-04-26T21:37:17.336Z,101429.35
2019-04-26T21:40:06.116Z,101428.33
2019-04-26T21:42:34.000Z,101427.88
2019-04-26T21:45:03.556Z,101428.17
2019-04-26T21:47:36.999Z,101424.28
2019-04-26T21:50:04.298Z,101427.05
2019-04-26T21:52:32.047Z,101426.56
2019-04-26T21:54:59.746Z,101427.39
2019-04-26T21:57:34.996Z,101425.40
2019-04-26T22:00:07.353Z,101423.53
2019-04-26T22:02:37.480Z,101415.24
2019-04-26T22:05:08.140Z,101409.58
2019-04-26T22:07:39.160Z,101407.23
2019-04-26T22:10:14.246Z,101405.77
2019-04-26T22:12:43.224Z,101406.36
2019-04-26T22:15:37.485Z,101402.41
2019-04-26T22:18:15.295Z,101403.44
2019-04-26T22:20:55.570Z,101402.11
2019-04-26T22:23:47.654Z,101406.81
2019-04-26T22:26:16.654Z,101408.61
2019-04-26T22:28:44.708Z,101400.61
2019-04-26T22:31:13.379Z,101411.81
2019-04-26T22:33:42.838Z,101405.42
2019-04-26T22:36:13.194Z,101401.28
2019-04-26T22:38:42.784Z,101401.86
2019-04-26T22:41:10.886Z,101403.48
2019-04-26T22:43:55.933Z,101396.81
2019-04-26T22:46:47.427Z,101399.86
2019-04-26T22:49:13.219Z,101390.14
2019-04-26T22:51:41.255Z,101391.06
2019-04-26T22:54:08.944Z,101397.61
2019-04-26T22:56:38.276Z,101390.41
2019-04-26T22:59:08.049Z,101397.07
2019-04-26T23:01:39.155Z,101394.41
2019-04-26T23:04:08.637Z,101393.21
2019-04-26T23:06:36.477Z,101388.34
2019-04-26T23:09:07.458Z,101393.39
2019-04-26T23:11:39.496Z,101389.59
2019-04-26T23:14:18.921Z,101393.92
2019-04-26T23:17:18.912Z,101397.91
2019-04-26T23:19:57.542Z,101384.55
2019-04-26T23:22:30.971Z,101388.52
2019-04-26T23:24:58.096Z,101383.97
2019-04-26T23:27:25.044Z,101388.00
2019-04-26T23:29:55.086Z,101390.58
2019-04-26T23:32:23.453Z,101391.50
2019-04-26T23:34:51.344Z,101389.87
2019-04-26T23:37:19.391Z,101388.69
2019-04-26T23:39:49.798Z,101384.36
2019-04-26T23:42:18.615Z,101381.87
2019-04-26T23:44:46.476Z,101389.09
2019-04-26T23:47:21.064Z,101386.55
2019-04-26T23:49:44.157Z,101384.34
2019-04-26T23:52:14.503Z,101379.36
2019-04-26T23:54:41.839Z,101384.86
2019-04-26T23:57:09.525Z,101379.45
2019-04-26T23:59:37.607Z,101380.54
